sensor_id;sensor_type;location;lat;lon;timestamp;pressure;altitude;pressure_sealevel;temperature;humidity
58243;BME280;50118;53.232;8.252;2023-06-22T00:01:18;101861.13;;;15.49;100.00
58243;BME280;50118;53.232;8.252;2023-06-22T00:03:44;101866.50;;;15.49;100.00
58243;BME280;50118;53.232;8.252;2023-06-22T00:06:09;101865.50;;;15.50;100.00
58243;BME280;50118;53.232;8.252;2023-06-22T00:08:35;101862.53;;;15.53;100.00
58243;BME280;50118;53.232;8.252;2023-06-22T00:11:00;101858.69;;;15.56;100.00
58243;BME280;50118;53.232;8.252;2023-06-22T00:13:26;101856.88;;;15.56;100.00
58243;BME280;50118;53.232;8.252;2023-06-22T00:15:51;101864.53;;;15.51;100.00
58243;BME280;50118;53.232;8.252;2023-06-22T00:18:17;101864.69;;;15.49;100.00
58243;BME280;50118;53.232;8.252;2023-06-22T00:20:42;101864.53;;;15.51;100.00
58243;BME280;50118;53.232;8.252;2023-06-22T00:23:08;101867.59;;;15.56;100.00
58243;BME280;50118;53.232;8.252;2023-06-22T00:25:38;101871.66;;;15.60;100.00
58243;BME280;50118;53.232;8.252;2023-06-22T00:28:05;101876.34;;;15.58;100.00
58243;BME280;50118;53.232;8.252;2023-06-22T00:30:37;101869.28;;;15.57;100.00
58243;BME280;50118;53.232;8.252;2023-06-22T00:33:03;101860.25;;;15.58;100.00
58243;BME280;50118;53.232;8.252;2023-06-22T00:35:28;101872.34;;;15.62;100.00
58243;BME280;50118;53.232;8.252;2023-06-22T00:37:58;101857.94;;;15.63;100.00
58243;BME280;50118;53.232;8.252;2023-06-22T00:40:29;101861.03;;;15.68;100.00
58243;BME280;50118;53.232;8.252;2023-06-22T00:42:55;101859.16;;;15.69;100.00
58243;BME280;50118;53.232;8.252;2023-06-22T00:45:22;101855.94;;;15.65;100.00
58243;BME280;50118;53.232;8.252;2023-06-22T00:47:50;101855.66;;;15.68;100.00
58243;BME280;50118;53.232;8.252;2023-06-22T00:50:19;101850.81;;;15.72;100.00
58243;BME280;50118;53.232;8.252;2023-06-22T00:52:56;101866.09;;;15.72;100.00
58243;BME280;50118;53.232;8.252;2023-06-22T00:55:24;101864.94;;;15.74;100.00
58243;BME280;50118;53.232;8.252;2023-06-22T00:57:52;101863.50;;;15.80;100.00
58243;BME280;50118;53.232;8.252;2023-06-22T01:00:25;101863.81;;;15.77;100.00
58243;BME280;50118;53.232;8.252;2023-06-22T01:02:52;101864.81;;;15.76;100.00
58243;BME280;50118;53.232;8.252;2023-06-22T01:05:24;101860.28;;;15.76;100.00
58243;BME280;50118;53.232;8.252;2023-06-22T01:10:32;101867.75;;;15.73;100.00
58243;BME280;50118;53.232;8.252;2023-06-22T01:13:07;101860.72;;;15.72;100.00
58243;BME280;50118;53.232;8.252;2023-06-22T01:15:37;101858.72;;;15.74;100.00
58243;BME280;50118;53.232;8.252;2023-06-22T01:18:05;101853.66;;;15.71;100.00
58243;BME280;50118;53.232;8.252;2023-06-22T01:20:34;101848.56;;;15.67;100.00
58243;BME280;50118;53.232;8.252;2023-06-22T01:26:13;101850.56;;;15.65;100.00
58243;BME280;50118;53.232;8.252;2023-06-22T01:28:53;101844.66;;;15.62;100.00
58243;BME280;50118;53.232;8.252;2023-06-22T01:31:24;101847.50;;;15.60;100.00
58243;BME280;50118;53.232;8.252;2023-06-22T01:33:53;101846.97;;;15.57;100.00
58243;BME280;50118;53.232;8.252;2023-06-22T01:36:20;101851.78;;;15.53;100.00
58243;BME280;50118;53.232;8.252;2023-06-22T01:38:47;101855.47;;;15.52;100.00
58243;BME280;50118;53.232;8.252;2023-06-22T01:41:13;101843.94;;;15.42;100.00
58243;BME280;50118;53.232;8.252;2023-06-22T01:43:39;101855.25;;;15.36;100.00
58243;BME280;50118;53.232;8.252;2023-06-22T01:46:05;101845.25;;;15.38;100.00
58243;BME280;50118;53.232;8.252;2023-06-22T01:48:31;101844.31;;;15.29;100.00
58243;BME280;50118;53.232;8.252;2023-06-22T01:50:57;101845.44;;;15.26;100.00
58243;BME280;50118;53.232;8.252;2023-06-22T01:53:24;101831.63;;;15.21;100.00
58243;BME280;50118;53.232;8.252;2023-06-22T01:55:50;101833.59;;;15.19;100.00
58243;BME280;50118;53.232;8.252;2023-06-22T01:58:16;101826.81;;;15.15;100.00
58243;BME280;50118;53.232;8.252;2023-06-22T02:00:53;101834.34;;;15.11;100.00
58243;BME280;50118;53.232;8.252;2023-06-22T02:03:30;101827.44;;;15.09;100.00
58243;BME280;50118;53.232;8.252;2023-06-22T02:06:03;101827.72;;;15.06;100.00
58243;BME280;50118;53.232;8.252;2023-06-22T02:08:33;101832.25;;;15.05;100.00
58243;BME280;50118;53.232;8.252;2023-06-22T02:11:02;101831.41;;;15.05;100.00
58243;BME280;50118;53.232;8.252;2023-06-22T02:13:29;101837.78;;;15.04;100.00
58243;BME280;50118;53.232;8.252;2023-06-22T02:15:56;101837.47;;;15.07;100.00
58243;BME280;50118;53.232;8.252;2023-06-22T02:18:21;101843.28;;;15.02;100.00
58243;BME280;50118;53.232;8.252;2023-06-22T02:20:49;101838.34;;;14.98;100.00
58243;BME280;50118;53.232;8.252;2023-06-22T02:23:15;101831.47;;;14.95;100.00
58243;BME280;50118;53.232;8.252;2023-06-22T02:25:40;101838.97;;;14.91;100.00
58243;BME280;50118;53.232;8.252;2023-06-22T02:28:09;101837.13;;;14.82;100.00
58243;BME280;50118;53.232;8.252;2023-06-22T02:30:35;101842.09;;;14.77;100.00
58243;BME280;50118;53.232;8.252;2023-06-22T02:33:00;101840.56;;;14.74;100.00
58243;BME280;50118;53.232;8.252;2023-06-22T02:35:29;101837.31;;;14.71;100.00
58243;BME280;50118;53.232;8.252;2023-06-22T02:38:01;101842.84;;;14.69;100.00
58243;BME280;50118;53.232;8.252;2023-06-22T02:40:30;101840.31;;;14.68;100.00
58243;BME280;50118;53.232;8.252;2023-06-22T02:42:57;101840.59;;;14.65;100.00
58243;BME280;50118;53.232;8.252;2023-06-22T02:45:26;101845.94;;;14.65;100.00
58243;BME280;50118;53.232;8.252;2023-06-22T02:47:52;101841.00;;;14.60;100.00
58243;BME280;50118;53.232;8.252;2023-06-22T02:50:17;101841.16;;;14.59;100.00
58243;BME280;50118;53.232;8.252;2023-06-22T02:52:43;101844.81;;;14.57;100.00
58243;BME280;50118;53.232;8.252;2023-06-22T02:55:08;101846.50;;;14.59;100.00
58243;BME280;50118;53.232;8.252;2023-06-22T02:57:34;101850.75;;;14.51;100.00
58243;BME280;50118;53.232;8.252;2023-06-22T02:59:59;101842.28;;;14.46;100.00
58243;BME280;50118;53.232;8.252;2023-06-22T03:02:25;101845.09;;;14.45;100.00
58243;BME280;50118;53.232;8.252;2023-06-22T03:04:52;101834.38;;;14.45;100.00
58243;BME280;50118;53.232;8.252;2023-06-22T03:07:19;101852.19;;;14.36;100.00
58243;BME280;50118;53.232;8.252;2023-06-22T03:09:44;101854.56;;;14.39;100.00
58243;BME280;50118;53.232;8.252;2023-06-22T03:12:10;101861.31;;;14.43;100.00
58243;BME280;50118;53.232;8.252;2023-06-22T03:14:36;101855.53;;;14.48;100.00
58243;BME280;50118;53.232;8.252;2023-06-22T03:17:01;101858.66;;;14.43;100.00
58243;BME280;50118;53.232;8.252;2023-06-22T03:19:29;101861.47;;;14.51;100.00
58243;BME280;50118;53.232;8.252;2023-06-22T03:21:57;101858.66;;;14.43;100.00
58243;BME280;50118;53.232;8.252;2023-06-22T03:24:22;101855.28;;;14.41;100.00
58243;BME280;50118;53.232;8.252;2023-06-22T03:26:47;101855.13;;;14.33;100.00
58243;BME280;50118;53.232;8.252;2023-06-22T03:29:13;101860.91;;;14.38;100.00
58243;BME280;50118;53.232;8.252;2023-06-22T03:31:39;101856.09;;;14.42;100.00
58243;BME280;50118;53.232;8.252;2023-06-22T03:34:04;101853.16;;;14.45;100.00
58243;BME280;50118;53.232;8.252;2023-06-22T03:36:30;101861.47;;;14.51;100.00
58243;BME280;50118;53.232;8.252;2023-06-22T03:38:55;101856.97;;;14.62;100.00
58243;BME280;50118;53.232;8.252;2023-06-22T03:41:21;101864.56;;;14.56;100.00
58243;BME280;50118;53.232;8.252;2023-06-22T03:43:46;101866.84;;;14.61;100.00
58243;BME280;50118;53.232;8.252;2023-06-22T03:46:12;101865.97;;;14.61;100.00
58243;BME280;50118;53.232;8.252;2023-06-22T03:48:37;101867.69;;;14.62;100.00
58243;BME280;50118;53.232;8.252;2023-06-22T03:51:03;101875.25;;;14.76;100.00
58243;BME280;50118;53.232;8.252;2023-06-22T03:53:29;101876.94;;;14.87;100.00
58243;BME280;50118;53.232;8.252;2023-06-22T03:55:55;101875.09;;;14.87;100.00
58243;BME280;50118;53.232;8.252;2023-06-22T03:58:21;101871.59;;;14.77;100.00
58243;BME280;50118;53.232;8.252;2023-06-22T04:00:48;101871.31;;;14.80;100.00
58243;BME280;50118;53.232;8.252;2023-06-22T04:03:14;101872.44;;;14.78;100.00
58243;BME280;50118;53.232;8.252;2023-06-22T04:05:40;101874.13;;;14.88;100.00
58243;BME280;50118;53.232;8.252;2023-06-22T04:08:06;101877.78;;;14.87;100.00
58243;BME280;50118;53.232;8.252;2023-06-22T04:10:31;101876.59;;;15.00;100.00
58243;BME280;50118;53.232;8.252;2023-06-22T04:12:57;101876.44;;;15.11;100.00
58243;BME280;50118;53.232;8.252;2023-06-22T04:15:22;101880.22;;;15.18;100.00
58243;BME280;50118;53.232;8.252;2023-06-22T04:17:48;101880.63;;;15.23;100.00
58243;BME280;50118;53.232;8.252;2023-06-22T04:20:13;101877.50;;;15.28;100.00
58243;BME280;50118;53.232;8.252;2023-06-22T04:22:39;101872.63;;;15.41;100.00
58243;BME280;50118;53.232;8.252;2023-06-22T04:25:06;101883.50;;;15.40;100.00
58243;BME280;50118;53.232;8.252;2023-06-22T04:27:33;101881.22;;;15.45;100.00
58243;BME280;50118;53.232;8.252;2023-06-22T04:30:03;101887.81;;;15.50;100.00
58243;BME280;50118;53.232;8.252;2023-06-22T04:32:29;101881.44;;;15.61;100.00
58243;BME280;50118;53.232;8.252;2023-06-22T04:34:54;101876.25;;;15.78;100.00
58243;BME280;50118;53.232;8.252;2023-06-22T04:37:19;101888.31;;;15.92;100.00
58243;BME280;50118;53.232;8.252;2023-06-22T04:39:49;101883.41;;;15.87;100.00
58243;BME280;50118;53.232;8.252;2023-06-22T04:42:15;101878.09;;;15.95;100.00
58243;BME280;50118;53.232;8.252;2023-06-22T04:44:40;101884.03;;;15.99;100.00
58243;BME280;50118;53.232;8.252;2023-06-22T04:47:07;101882.41;;;15.88;100.00
58243;BME280;50118;53.232;8.252;2023-06-22T04:49:34;101881.78;;;15.94;100.00
58243;BME280;50118;53.232;8.252;2023-06-22T04:52:03;101885.94;;;16.06;100.00
58243;BME280;50118;53.232;8.252;2023-06-22T04:54:30;101887.00;;;16.14;100.00
58243;BME280;50118;53.232;8.252;2023-06-22T04:56:59;101887.88;;;16.14;100.00
58243;BME280;50118;53.232;8.252;2023-06-22T04:59:28;101884.69;;;16.19;100.00
58243;BME280;50118;53.232;8.252;2023-06-22T05:01:56;101872.28;;;16.18;100.00
58243;BME280;50118;53.232;8.252;2023-06-22T05:04:22;101876.09;;;16.33;100.00
58243;BME280;50118;53.232;8.252;2023-06-22T05:06:51;101879.63;;;16.52;100.00
58243;BME280;50118;53.232;8.252;2023-06-22T05:09:17;101873.63;;;16.40;100.00
58243;BME280;50118;53.232;8.252;2023-06-22T05:11:44;101870.97;;;16.66;100.00
58243;BME280;50118;53.232;8.252;2023-06-22T05:14:10;101868.44;;;16.65;100.00
58243;BME280;50118;53.232;8.252;2023-06-22T05:16:38;101869.06;;;16.58;100.00
58243;BME280;50118;53.232;8.252;2023-06-22T05:19:04;101873.28;;;16.61;100.00
58243;BME280;50118;53.232;8.252;2023-06-22T05:21:30;101879.03;;;16.66;100.00
58243;BME280;50118;53.232;8.252;2023-06-22T05:23:57;101868.38;;;16.83;100.00
58243;BME280;50118;53.232;8.252;2023-06-22T05:26:29;101876.63;;;17.07;100.00
58243;BME280;50118;53.232;8.252;2023-06-22T05:28:56;101879.09;;;17.27;100.00
58243;BME280;50118;53.232;8.252;2023-06-22T05:31:23;101879.78;;;17.37;100.00
58243;BME280;50118;53.232;8.252;2023-06-22T05:33:50;101873.28;;;17.56;100.00
58243;BME280;50118;53.232;8.252;2023-06-22T05:36:16;101870.06;;;18.03;100.00
58243;BME280;50118;53.232;8.252;2023-06-22T05:38:44;101878.97;;;18.37;100.00
58243;BME280;50118;53.232;8.252;2023-06-22T05:41:09;101872.22;;;18.57;100.00
58243;BME280;50118;53.232;8.252;2023-06-22T05:43:34;101865.78;;;19.39;100.00
58243;BME280;50118;53.232;8.252;2023-06-22T05:46:01;101872.84;;;19.80;100.00
58243;BME280;50118;53.232;8.252;2023-06-22T05:48:26;101866.25;;;20.66;100.00
58243;BME280;50118;53.232;8.252;2023-06-22T05:50:52;101873.91;;;20.63;100.00
58243;BME280;50118;53.232;8.252;2023-06-22T05:53:18;101871.28;;;21.44;97.91
58243;BME280;50118;53.232;8.252;2023-06-22T05:55:43;101876.03;;;21.57;95.65
58243;BME280;50118;53.232;8.252;2023-06-22T05:58:09;101877.91;;;21.26;95.31
58243;BME280;50118;53.232;8.252;2023-06-22T06:00:35;101876.66;;;20.93;100.00
58243;BME280;50118;53.232;8.252;2023-06-22T06:03:02;101873.56;;;21.25;97.75
58243;BME280;50118;53.232;8.252;2023-06-22T06:05:33;101877.84;;;22.08;95.91
58243;BME280;50118;53.232;8.252;2023-06-22T06:08:02;101879.91;;;22.06;90.70
58243;BME280;50118;53.232;8.252;2023-06-22T06:10:30;101869.06;;;22.06;93.86
58243;BME280;50118;53.232;8.252;2023-06-22T06:12:55;101874.84;;;22.74;87.52
58243;BME280;50118;53.232;8.252;2023-06-22T06:15:21;101876.53;;;23.45;85.91
58243;BME280;50118;53.232;8.252;2023-06-22T06:20:13;101874.72;;;25.19;72.51
58243;BME280;50118;53.232;8.252;2023-06-22T06:22:38;101870.31;;;23.09;84.36
58243;BME280;50118;53.232;8.252;2023-06-22T06:25:05;101875.03;;;24.44;76.41
58243;BME280;50118;53.232;8.252;2023-06-22T06:27:30;101873.97;;;24.78;73.94
58243;BME280;50118;53.232;8.252;2023-06-22T06:29:56;101872.44;;;25.03;70.86
58243;BME280;50118;53.232;8.252;2023-06-22T06:32:21;101864.09;;;23.29;76.28
58243;BME280;50118;53.232;8.252;2023-06-22T06:34:47;101870.22;;;24.19;73.43
58243;BME280;50118;53.232;8.252;2023-06-22T06:37:12;101872.13;;;24.52;71.76
58243;BME280;50118;53.232;8.252;2023-06-22T06:39:38;101876.50;;;24.20;69.92
58243;BME280;50118;53.232;8.252;2023-06-22T06:42:05;101873.13;;;23.98;71.32
58243;BME280;50118;53.232;8.252;2023-06-22T06:44:30;101874.84;;;24.39;71.41
58243;BME280;50118;53.232;8.252;2023-06-22T06:46:56;101861.41;;;23.91;68.50
58243;BME280;50118;53.232;8.252;2023-06-22T06:49:21;101882.16;;;24.85;65.58
58243;BME280;50118;53.232;8.252;2023-06-22T06:51:47;101871.69;;;25.47;61.74
58243;BME280;50118;53.232;8.252;2023-06-22T06:54:12;101880.63;;;25.09;61.25
58243;BME280;50118;53.232;8.252;2023-06-22T06:56:37;101874.84;;;24.26;66.35
58243;BME280;50118;53.232;8.252;2023-06-22T06:59:03;101877.13;;;24.02;67.82
58243;BME280;50118;53.232;8.252;2023-06-22T07:01:28;101871.38;;;25.17;62.26
58243;BME280;50118;53.232;8.252;2023-06-22T07:03:59;101873.38;;;24.23;65.63
58243;BME280;50118;53.232;8.252;2023-06-22T07:06:24;101876.09;;;24.43;66.40
58243;BME280;50118;53.232;8.252;2023-06-22T07:08:55;101879.44;;;24.18;64.42
58243;BME280;50118;53.232;8.252;2023-06-22T07:11:20;101869.09;;;25.01;60.94
58243;BME280;50118;53.232;8.252;2023-06-22T07:13:45;101876.72;;;24.45;64.04
58243;BME280;50118;53.232;8.252;2023-06-22T07:16:11;101864.63;;;25.33;59.46
58243;BME280;50118;53.232;8.252;2023-06-22T07:18:36;101863.94;;;24.72;60.56
58243;BME280;50118;53.232;8.252;2023-06-22T07:21:02;101860.16;;;24.67;62.59
58243;BME280;50118;53.232;8.252;2023-06-22T07:23:29;101861.34;;;24.97;60.31
58243;BME280;50118;53.232;8.252;2023-06-22T07:25:54;101863.91;;;25.51;58.37
58243;BME280;50118;53.232;8.252;2023-06-22T07:28:20;101861.06;;;25.32;59.82
58243;BME280;50118;53.232;8.252;2023-06-22T07:30:46;101860.38;;;24.78;59.93
58243;BME280;50118;53.232;8.252;2023-06-22T07:33:11;101865.16;;;24.90;62.08
58243;BME280;50118;53.232;8.252;2023-06-22T07:35:36;101864.78;;;25.83;57.19
58243;BME280;50118;53.232;8.252;2023-06-22T07:38:02;101866.56;;;25.06;58.86
58243;BME280;50118;53.232;8.252;2023-06-22T07:40:28;101858.75;;;25.29;60.74
58243;BME280;50118;53.232;8.252;2023-06-22T07:42:54;101860.94;;;25.91;56.73
58243;BME280;50118;53.232;8.252;2023-06-22T07:45:20;101861.13;;;25.64;57.96
58243;BME280;50118;53.232;8.252;2023-06-22T07:47:45;101860.09;;;26.47;54.07
58243;BME280;50118;53.232;8.252;2023-06-22T07:50:11;101856.03;;;25.23;58.28
58243;BME280;50118;53.232;8.252;2023-06-22T07:52:36;101855.13;;;25.81;56.37
58243;BME280;50118;53.232;8.252;2023-06-22T07:55:02;101855.22;;;25.29;57.83
58243;BME280;50118;53.232;8.252;2023-06-22T07:57:28;101858.91;;;24.49;61.37
58243;BME280;50118;53.232;8.252;2023-06-22T08:00:00;101843.41;;;24.50;63.22
58243;BME280;50118;53.232;8.252;2023-06-22T08:02:26;101840.34;;;25.11;60.41
58243;BME280;50118;53.232;8.252;2023-06-22T08:04:52;101835.41;;;24.88;61.13
58243;BME280;50118;53.232;8.252;2023-06-22T08:07:17;101837.88;;;25.87;56.92
58243;BME280;50118;53.232;8.252;2023-06-22T08:09:48;101833.47;;;25.86;57.89
58243;BME280;50118;53.232;8.252;2023-06-22T08:12:14;101828.97;;;25.21;60.73
58243;BME280;50118;53.232;8.252;2023-06-22T08:14:42;101831.94;;;25.26;59.32
58243;BME280;50118;53.232;8.252;2023-06-22T08:17:09;101829.28;;;26.15;57.85
58243;BME280;50118;53.232;8.252;2023-06-22T08:19:34;101824.16;;;25.68;59.39
58243;BME280;50118;53.232;8.252;2023-06-22T08:22:00;101820.69;;;25.86;57.40
58243;BME280;50118;53.232;8.252;2023-06-22T08:24:25;101818.22;;;26.54;56.60
58243;BME280;50118;53.232;8.252;2023-06-22T08:26:55;101822.63;;;25.72;59.43
58243;BME280;50118;53.232;8.252;2023-06-22T08:29:21;101820.44;;;25.04;62.21
58243;BME280;50118;53.232;8.252;2023-06-22T08:31:46;101823.13;;;25.17;60.29
58243;BME280;50118;53.232;8.252;2023-06-22T08:34:12;101816.25;;;25.53;59.11
58243;BME280;50118;53.232;8.252;2023-06-22T08:36:37;101823.44;;;25.48;58.54
58243;BME280;50118;53.232;8.252;2023-06-22T08:39:06;101818.16;;;25.53;59.29
58243;BME280;50118;53.232;8.252;2023-06-22T08:41:32;101820.38;;;25.69;59.77
58243;BME280;50118;53.232;8.252;2023-06-22T08:43:57;101819.28;;;25.39;60.26
58243;BME280;50118;53.232;8.252;2023-06-22T08:46:23;101823.66;;;26.35;57.00
58243;BME280;50118;53.232;8.252;2023-06-22T08:48:56;101811.94;;;25.39;60.03
58243;BME280;50118;53.232;8.252;2023-06-22T08:51:25;101797.06;;;24.83;62.15
58243;BME280;50118;53.232;8.252;2023-06-22T08:53:50;101811.28;;;26.07;57.98
58243;BME280;50118;53.232;8.252;2023-06-22T08:56:15;101811.00;;;26.41;55.49
58243;BME280;50118;53.232;8.252;2023-06-22T08:58:41;101804.06;;;25.88;58.43
58243;BME280;50118;53.232;8.252;2023-06-22T09:01:06;101815.00;;;25.56;60.14
58243;BME280;50118;53.232;8.252;2023-06-22T09:03:32;101805.00;;;26.07;60.40
58243;BME280;50118;53.232;8.252;2023-06-22T09:05:58;101800.94;;;26.97;56.70
58243;BME280;50118;53.232;8.252;2023-06-22T09:08:24;101809.03;;;25.66;59.31
58243;BME280;50118;53.232;8.252;2023-06-22T09:10:49;101800.50;;;25.87;57.81
58243;BME280;50118;53.232;8.252;2023-06-22T09:13:16;101792.47;;;25.35;60.31
58243;BME280;50118;53.232;8.252;2023-06-22T09:15:41;101800.19;;;25.70;62.07
58243;BME280;50118;53.232;8.252;2023-06-22T09:18:10;101807.59;;;26.20;59.02
58243;BME280;50118;53.232;8.252;2023-06-22T09:20:35;101794.53;;;26.29;57.19
58243;BME280;50118;53.232;8.252;2023-06-22T09:23:01;101792.88;;;26.46;59.97
58243;BME280;50118;53.232;8.252;2023-06-22T09:25:26;101793.06;;;27.68;56.79
58243;BME280;50118;53.232;8.252;2023-06-22T09:27:51;101784.78;;;26.95;54.04
58243;BME280;50118;53.232;8.252;2023-06-22T09:30:17;101784.31;;;26.18;58.79
58243;BME280;50118;53.232;8.252;2023-06-22T09:32:42;101779.50;;;25.63;58.89
58243;BME280;50118;53.232;8.252;2023-06-22T09:35:09;101777.06;;;25.80;60.74
58243;BME280;50118;53.232;8.252;2023-06-22T09:37:34;101777.00;;;25.61;60.08
58243;BME280;50118;53.232;8.252;2023-06-22T09:40:01;101764.19;;;25.87;57.67
58243;BME280;50118;53.232;8.252;2023-06-22T09:42:26;101764.44;;;26.73;54.64
58243;BME280;50118;53.232;8.252;2023-06-22T09:44:51;101759.50;;;25.44;58.65
58243;BME280;50118;53.232;8.252;2023-06-22T09:47:17;101766.91;;;27.11;53.17
58243;BME280;50118;53.232;8.252;2023-06-22T09:49:42;101761.13;;;25.77;55.72
58243;BME280;50118;53.232;8.252;2023-06-22T09:52:08;101764.13;;;25.68;58.88
58243;BME280;50118;53.232;8.252;2023-06-22T09:54:33;101761.63;;;26.98;55.42
58243;BME280;50118;53.232;8.252;2023-06-22T09:56:58;101754.06;;;26.63;53.85
58243;BME280;50118;53.232;8.252;2023-06-22T09:59:24;101742.00;;;26.08;57.71
58243;BME280;50118;53.232;8.252;2023-06-22T10:01:49;101752.00;;;26.15;57.04
58243;BME280;50118;53.232;8.252;2023-06-22T10:04:14;101748.09;;;26.29;56.53
58243;BME280;50118;53.232;8.252;2023-06-22T10:06:40;101747.38;;;25.90;56.60
58243;BME280;50118;53.232;8.252;2023-06-22T10:09:06;101738.66;;;25.49;59.39
58243;BME280;50118;53.232;8.252;2023-06-22T10:11:32;101744.28;;;26.30;57.46
58243;BME280;50118;53.232;8.252;2023-06-22T10:14:00;101738.63;;;25.56;58.04
58243;BME280;50118;53.232;8.252;2023-06-22T10:16:30;101741.72;;;25.91;57.84
58243;BME280;50118;53.232;8.252;2023-06-22T10:18:56;101737.03;;;26.79;57.32
58243;BME280;50118;53.232;8.252;2023-06-22T10:21:21;101723.09;;;27.60;52.22
58243;BME280;50118;53.232;8.252;2023-06-22T10:23:47;101728.44;;;27.55;53.75
58243;BME280;50118;53.232;8.252;2023-06-22T10:26:12;101741.69;;;28.41;51.07
58243;BME280;50118;53.232;8.252;2023-06-22T10:28:37;101726.94;;;28.82;47.53
58243;BME280;50118;53.232;8.252;2023-06-22T10:31:03;101728.78;;;29.05;48.29
58243;BME280;50118;53.232;8.252;2023-06-22T10:33:28;101728.59;;;27.95;52.18
58243;BME280;50118;53.232;8.252;2023-06-22T10:35:54;101729.09;;;27.92;50.88
58243;BME280;50118;53.232;8.252;2023-06-22T10:38:19;101719.25;;;27.49;52.75
58243;BME280;50118;53.232;8.252;2023-06-22T10:40:45;101724.97;;;27.60;53.15
58243;BME280;50118;53.232;8.252;2023-06-22T10:43:11;101725.06;;;27.41;50.37
58243;BME280;50118;53.232;8.252;2023-06-22T10:45:36;101721.06;;;28.38;49.84
58243;BME280;50118;53.232;8.252;2023-06-22T10:48:01;101726.50;;;27.98;50.17
58243;BME280;50118;53.232;8.252;2023-06-22T10:50:27;101711.22;;;26.57;55.93
58243;BME280;50118;53.232;8.252;2023-06-22T10:52:54;101707.38;;;27.55;52.72
58243;BME280;50118;53.232;8.252;2023-06-22T10:55:19;101702.53;;;28.17;51.09
58243;BME280;50118;53.232;8.252;2023-06-22T10:57:44;101700.63;;;27.28;55.67
58243;BME280;50118;53.232;8.252;2023-06-22T11:00:12;101706.66;;;27.72;54.23
58243;BME280;50118;53.232;8.252;2023-06-22T11:02:39;101702.34;;;27.41;52.78
58243;BME280;50118;53.232;8.252;2023-06-22T11:05:05;101697.44;;;26.70;54.26
58243;BME280;50118;53.232;8.252;2023-06-22T11:07:30;101698.31;;;26.82;54.66
58243;BME280;50118;53.232;8.252;2023-06-22T11:09:56;101691.66;;;26.78;56.35
58243;BME280;50118;53.232;8.252;2023-06-22T11:12:21;101689.78;;;27.21;55.16
58243;BME280;50118;53.232;8.252;2023-06-22T11:14:47;101685.03;;;28.06;51.75
58243;BME280;50118;53.232;8.252;2023-06-22T11:17:12;101682.88;;;27.84;52.38
58243;BME280;50118;53.232;8.252;2023-06-22T11:19:38;101679.50;;;27.05;54.15
58243;BME280;50118;53.232;8.252;2023-06-22T11:22:03;101686.00;;;28.00;52.88
58243;BME280;50118;53.232;8.252;2023-06-22T11:24:29;101693.91;;;28.89;48.62
58243;BME280;50118;53.232;8.252;2023-06-22T11:26:54;101684.03;;;28.59;49.38
58243;BME280;50118;53.232;8.252;2023-06-22T11:29:20;101693.75;;;28.03;50.84
58243;BME280;50118;53.232;8.252;2023-06-22T11:31:45;101678.59;;;28.12;51.45
58243;BME280;50118;53.232;8.252;2023-06-22T11:34:10;101672.41;;;27.57;51.85
58243;BME280;50118;53.232;8.252;2023-06-22T11:36:36;101665.75;;;28.12;52.68
58243;BME280;50118;53.232;8.252;2023-06-22T11:39:02;101667.50;;;27.60;54.88
58243;BME280;50118;53.232;8.252;2023-06-22T11:41:27;101663.44;;;28.33;53.79
58243;BME280;50118;53.232;8.252;2023-06-22T11:43:53;101665.91;;;28.87;48.57
58243;BME280;50118;53.232;8.252;2023-06-22T11:46:18;101647.19;;;27.91;51.73
58243;BME280;50118;53.232;8.252;2023-06-22T11:48:43;101650.69;;;28.39;49.42
58243;BME280;50118;53.232;8.252;2023-06-22T11:51:09;101657.31;;;28.55;49.63
58243;BME280;50118;53.232;8.252;2023-06-22T11:53:34;101645.06;;;27.93;49.41
58243;BME280;50118;53.232;8.252;2023-06-22T11:56:01;101646.44;;;28.72;48.53
58243;BME280;50118;53.232;8.252;2023-06-22T11:58:26;101655.25;;;28.21;48.78
58243;BME280;50118;53.232;8.252;2023-06-22T12:00:52;101654.19;;;27.75;51.31
58243;BME280;50118;53.232;8.252;2023-06-22T12:03:19;101650.47;;;27.34;52.05
58243;BME280;50118;53.232;8.252;2023-06-22T12:05:44;101659.22;;;28.02;50.86
58243;BME280;50118;53.232;8.252;2023-06-22T12:08:09;101642.88;;;27.36;51.55
58243;BME280;50118;53.232;8.252;2023-06-22T12:10:35;101643.59;;;28.14;50.71
58243;BME280;50118;53.232;8.252;2023-06-22T12:13:00;101645.50;;;27.00;55.16
58243;BME280;50118;53.232;8.252;2023-06-22T12:15:26;101642.41;;;27.09;52.91
58243;BME280;50118;53.232;8.252;2023-06-22T12:17:52;101635.28;;;26.96;54.55
58243;BME280;50118;53.232;8.252;2023-06-22T12:20:17;101626.69;;;27.34;53.52
58243;BME280;50118;53.232;8.252;2023-06-22T12:22:44;101631.84;;;26.52;56.95
58243;BME280;50118;53.232;8.252;2023-06-22T12:25:11;101631.03;;;25.96;57.93
58243;BME280;50118;53.232;8.252;2023-06-22T12:27:37;101631.72;;;26.65;56.61
58243;BME280;50118;53.232;8.252;2023-06-22T12:30:03;101620.00;;;26.58;56.66
58243;BME280;50118;53.232;8.252;2023-06-22T12:32:29;101618.69;;;26.12;59.01
58243;BME280;50118;53.232;8.252;2023-06-22T12:34:55;101614.72;;;25.89;59.20
58243;BME280;50118;53.232;8.252;2023-06-22T12:37:21;101614.88;;;25.94;58.96
58243;BME280;50118;53.232;8.252;2023-06-22T12:39:47;101612.31;;;26.18;58.20
58243;BME280;50118;53.232;8.252;2023-06-22T12:42:12;101615.44;;;26.21;59.00
58243;BME280;50118;53.232;8.252;2023-06-22T12:44:38;101615.94;;;26.12;60.05
58243;BME280;50118;53.232;8.252;2023-06-22T12:47:05;101609.59;;;26.18;61.39
58243;BME280;50118;53.232;8.252;2023-06-22T12:49:30;101608.53;;;26.00;60.64